createdAt,value
2022-10-05T00:00:15.835Z,14.90
2022-10-05T00:02:44.072Z,14.90
2022-10-05T00:05:18.314Z,14.90
2022-10-05T00:07:46.242Z,14.90
2022-10-05T00:10:15.907Z,14.90
2022-10-05T00:12:46.119Z,14.90
2022-10-05T00:15:15.245Z,14.90
2022-10-05T00:17:43.840Z,14.90
2022-10-05T00:20:19.315Z,14.90
2022-10-05T00:22:47.376Z,14.90
2022-10-05T00:25:16.660Z,14.90
2022-10-05T00:27:47.074Z,14.90
2022-10-05T00:30:16.270Z,14.80
2022-10-05T00:32:44.242Z,14.80
2022-10-05T00:35:12.990Z,14.80
2022-10-05T00:37:41.314Z,14.80
2022-10-05T00:40:19.163Z,14.80
2022-10-05T00:42:52.849Z,14.80
2022-10-05T00:45:22.877Z,14.80
2022-10-05T00:47:54.935Z,14.80
2022-10-05T00:50:40.724Z,14.70
2022-10-05T00:53:13.850Z,14.70
2022-10-05T00:55:48.064Z,14.80
2022-10-05T00:58:21.119Z,14.80
2022-10-05T01:00:52.129Z,14.80
2022-10-05T01:03:21.524Z,14.80
2022-10-05T01:05:55.740Z,14.70
2022-10-05T01:08:27.660Z,14.80
2022-10-05T01:11:01.496Z,14.80
2022-10-05T01:13:33.328Z,14.70
2022-10-05T01:16:10.698Z,14.70
2022-10-05T01:18:41.645Z,14.70
2022-10-05T01:21:14.446Z,14.70
2022-10-05T01:23:55.433Z,14.70
2022-10-05T01:26:36.745Z,14.70
2022-10-05T01:29:12.184Z,14.70
2022-10-05T01:31:42.768Z,14.70
2022-10-05T01:34:14.387Z,14.70
2022-10-05T01:36:45.935Z,14.70
2022-10-05T01:39:17.804Z,14.70
2022-10-05T01:41:51.141Z,14.70
2022-10-05T01:44:22.044Z,14.60
2022-10-05T01:46:53.899Z,14.60
2022-10-05T01:49:29.767Z,14.60
2022-10-05T01:52:03.405Z,14.60
2022-10-05T01:54:36.446Z,14.60
2022-10-05T01:57:07.896Z,14.60
2022-10-05T01:59:44.837Z,14.50
2022-10-05T02:02:15.449Z,14.50
2022-10-05T02:05:01.370Z,14.50
2022-10-05T02:07:33.711Z,14.50
2022-10-05T02:10:06.561Z,14.40
2022-10-05T02:12:36.453Z,14.40
2022-10-05T02:15:13.098Z,14.40
2022-10-05T02:17:43.160Z,14.40
2022-10-05T02:20:13.008Z,14.30
2022-10-05T02:22:46.016Z,16.90
2022-10-05T02:25:14.856Z,14.30
2022-10-05T02:27:46.661Z,14.20
2022-10-05T02:30:17.660Z,14.20
2022-10-05T02:32:48.311Z,14.20
2022-10-05T02:35:17.609Z,14.20
2022-10-05T02:37:50.239Z,14.10
2022-10-05T02:40:22.296Z,14.10
2022-10-05T02:42:54.038Z,14.10
2022-10-05T02:45:28.612Z,14.10
2022-10-05T02:48:03.103Z,14.10
2022-10-05T02:50:36.009Z,14.10
2022-10-05T02:53:11.011Z,14.10
2022-10-05T02:55:44.675Z,14.10
2022-10-05T02:58:14.883Z,14.10
2022-10-05T03:00:46.951Z,14.10
2022-10-05T03:03:19.265Z,14.10
2022-10-05T03:05:49.296Z,14.10
2022-10-05T03:08:18.952Z,14.10
2022-10-05T03:10:48.823Z,14.00
2022-10-05T03:13:21.991Z,14.00
2022-10-05T03:16:02.259Z,14.10
2022-10-05T03:18:34.987Z,14.00
2022-10-05T03:21:08.668Z,14.00
2022-10-05T03:23:41.392Z,14.00
2022-10-05T03:26:18.031Z,14.00
2022-10-05T03:28:49.875Z,14.00
2022-10-05T03:31:23.971Z,14.00
2022-10-05T03:33:55.111Z,14.00
2022-10-05T03:36:26.169Z,14.00
2022-10-05T03:38:56.495Z,14.00
2022-10-05T03:41:27.830Z,13.90
2022-10-05T03:44:02.722Z,13.90
2022-10-05T03:46:40.099Z,13.90
2022-10-05T03:49:12.475Z,13.90
2022-10-05T03:51:41.864Z,13.90
2022-10-05T03:54:12.893Z,14.00
2022-10-05T03:56:43.006Z,14.00
2022-10-05T03:59:14.127Z,13.90
2022-10-05T04:01:46.431Z,13.90
2022-10-05T04:04:20.740Z,13.90
2022-10-05T04:06:50.164Z,13.90
2022-10-05T04:09:23.515Z,13.90
2022-10-05T04:11:53.949Z,13.90
2022-10-05T04:14:23.801Z,13.90
2022-10-05T04:16:56.032Z,13.90
2022-10-05T04:19:27.169Z,13.90
2022-10-05T04:21:58.891Z,13.80
2022-10-05T04:24:30.696Z,13.80
2022-10-05T04:26:59.892Z,13.80
2022-10-05T04:29:31.821Z,13.80
2022-10-05T04:32:09.863Z,13.80
2022-10-05T04:34:44.631Z,13.80
2022-10-05T04:37:18.312Z,13.80
2022-10-05T04:39:49.838Z,13.80
2022-10-05T04:42:22.516Z,13.80
2022-10-05T04:45:05.345Z,13.70
2022-10-05T04:47:51.419Z,13.70
2022-10-05T04:50:24.305Z,13.70
2022-10-05T04:52:55.341Z,13.70
2022-10-05T04:55:29.027Z,13.70
2022-10-05T04:58:02.342Z,13.70
2022-10-05T05:00:32.468Z,13.60
2022-10-05T05:03:13.887Z,13.60
2022-10-05T05:06:12.027Z,13.60
2022-10-05T05:08:39.737Z,13.60
2022-10-05T05:11:15.799Z,13.60
2022-10-05T05:14:02.692Z,13.60
2022-10-05T05:16:34.442Z,13.60
2022-10-05T05:19:15.366Z,13.50
2022-10-05T05:21:45.815Z,13.50
2022-10-05T05:24:20.190Z,13.50
2022-10-05T05:27:05.995Z,13.50
2022-10-05T05:29:38.439Z,13.50
2022-10-05T05:32:09.584Z,13.50
2022-10-05T05:34:43.838Z,13.40
2022-10-05T05:37:18.633Z,13.40
2022-10-05T05:39:52.857Z,13.40
2022-10-05T05:42:28.528Z,13.40
2022-10-05T05:44:58.994Z,13.40
2022-10-05T05:47:31.049Z,13.40
2022-10-05T05:50:10.400Z,13.40
2022-10-05T05:52:40.122Z,13.40
2022-10-05T05:55:12.992Z,13.40
2022-10-05T05:57:43.288Z,13.40
2022-10-05T06:00:19.541Z,13.40
2022-10-05T06:02:50.137Z,13.40
2022-10-05T06:05:28.608Z,13.40
2022-10-05T06:07:57.849Z,13.40
2022-10-05T06:10:29.368Z,13.40
2022-10-05T06:13:01.736Z,13.40
2022-10-05T06:15:33.527Z,13.40
2022-10-05T06:18:03.710Z,13.40
2022-10-05T06:20:36.624Z,13.40
2022-10-05T06:23:07.145Z,13.50
2022-10-05T06:25:39.602Z,13.50
2022-10-05T06:28:10.507Z,13.50
2022-10-05T06:30:44.288Z,13.50
2022-10-05T06:33:18.732Z,13.50
2022-10-05T06:35:53.549Z,13.50
2022-10-05T06:38:37.385Z,13.50
2022-10-05T06:41:11.667Z,13.50
2022-10-05T06:43:49.713Z,13.60
2022-10-05T06:46:20.527Z,13.60
2022-10-05T06:48:55.008Z,13.60
2022-10-05T06:51:28.222Z,13.60
2022-10-05T06:54:04.006Z,13.60
2022-10-05T06:56:34.112Z,13.60
2022-10-05T06:59:07.093Z,13.60
2022-10-05T07:01:41.423Z,13.60
2022-10-05T07:04:26.938Z,13.60
2022-10-05T07:06:58.828Z,13.60
2022-10-05T07:09:36.933Z,13.70
2022-10-05T07:12:14.024Z,13.70
2022-10-05T07:14:49.363Z,13.70
2022-10-05T07:17:23.001Z,13.70
2022-10-05T07:19:55.822Z,13.70
2022-10-05T07:22:40.731Z,13.70
2022-10-05T07:25:11.991Z,13.70
2022-10-05T07:27:42.548Z,13.80
2022-10-05T07:30:11.521Z,13.80
2022-10-05T07:32:44.366Z,13.80
2022-10-05T07:35:36.261Z,13.90
2022-10-05T07:38:10.526Z,13.90
2022-10-05T07:40:40.163Z,13.90
2022-10-05T07:43:35.954Z,14.00
2022-10-05T07:46:20.022Z,14.00
2022-10-05T07:48:53.766Z,14.10
2022-10-05T07:51:25.497Z,14.10
2022-10-05T07:53:58.850Z,14.20
2022-10-05T07:56:29.804Z,14.20
2022-10-05T07:59:01.674Z,14.20
2022-10-05T08:01:31.260Z,14.30
2022-10-05T08:04:01.290Z,14.30
2022-10-05T08:06:44.588Z,14.30
2022-10-05T08:09:21.092Z,14.40
2022-10-05T08:11:52.540Z,14.40
2022-10-05T08:14:23.692Z,13.40
2022-10-05T08:16:53.142Z,14.40
2022-10-05T08:19:23.202Z,14.40
2022-10-05T08:21:53.283Z,14.50
2022-10-05T08:24:35.419Z,14.50
2022-10-05T08:27:06.111Z,14.50
2022-10-05T08:29:35.551Z,14.60
2022-10-05T08:32:04.355Z,14.60
2022-10-05T08:34:36.792Z,14.60
2022-10-05T08:37:06.970Z,14.60
2022-10-05T08:39:38.369Z,14.60
2022-10-05T08:42:26.923Z,14.60
2022-10-05T08:45:21.864Z,14.60
2022-10-05T08:47:59.742Z,14.70
2022-10-05T08:50:34.633Z,14.70
2022-10-05T08:53:12.271Z,14.70
2022-10-05T08:55:44.600Z,14.70
2022-10-05T08:58:31.736Z,14.70
2022-10-05T09:01:05.500Z,14.80
2022-10-05T09:03:51.761Z,14.80
2022-10-05T09:06:35.620Z,14.80
2022-10-05T09:09:25.261Z,14.80
2022-10-05T09:12:02.136Z,14.80
2022-10-05T09:14:34.437Z,14.80
2022-10-05T09:17:10.701Z,14.80
2022-10-05T09:19:59.844Z,14.90
2022-10-05T09:22:37.912Z,14.90
2022-10-05T09:25:15.613Z,14.90
2022-10-05T09:27:49.579Z,14.90
2022-10-05T09:30:21.237Z,14.90
2022-10-05T09:33:07.228Z,15.00
2022-10-05T09:35:47.626Z,15.00
2022-10-05T09:38:21.060Z,15.00
2022-10-05T09:41:04.985Z,15.10
2022-10-05T09:43:54.006Z,15.10
2022-10-05T09:46:33.683Z,15.10
2022-10-05T09:49:06.372Z,15.20
2022-10-05T09:52:03.051Z,15.20
2022-10-05T09:54:51.123Z,15.30
2022-10-05T09:57:49.380Z,15.30
2022-10-05T10:00:23.991Z,15.40
2022-10-05T10:03:07.209Z,15.40
2022-10-05T10:05:48.184Z,15.50
2022-10-05T10:08:23.369Z,15.50
2022-10-05T10:10:57.800Z,15.50
2022-10-05T10:13:33.198Z,15.50
2022-10-05T10:16:16.827Z,15.60
2022-10-05T10:19:01.706Z,15.60
2022-10-05T10:21:46.966Z,15.70
2022-10-05T10:24:19.413Z,15.70
2022-10-05T10:27:02.715Z,15.70
2022-10-05T10:29:45.920Z,15.80
2022-10-05T10:32:27.326Z,15.80
2022-10-05T10:35:13.027Z,15.80
2022-10-05T10:38:06.570Z,15.90
2022-10-05T10:40:38.749Z,15.90
2022-10-05T10:43:37.056Z,15.90
2022-10-05T10:46:14.106Z,15.90
2022-10-05T10:48:59.787Z,16.00
2022-10-05T10:51:51.620Z,16.00
2022-10-05T10:54:36.780Z,16.00
2022-10-05T10:57:06.299Z,16.00
2022-10-05T10:59:46.582Z,16.00
2022-10-05T11:02:27.130Z,16.10
2022-10-05T11:05:13.754Z,16.10
2022-10-05T11:07:48.958Z,16.10
2022-10-05T11:10:26.770Z,16.10
2022-10-05T11:13:09.692Z,16.10
2022-10-05T11:15:49.548Z,16.20
2022-10-05T11:18:21.070Z,16.20
2022-10-05T11:21:05.690Z,16.20
2022-10-05T11:23:46.565Z,16.20
2022-10-05T11:26:24.091Z,16.20
2022-10-05T11:29:01.301Z,16.20
2022-10-05T11:31:48.245Z,16.20
2022-10-05T11:34:25.619Z,16.30
2022-10-05T11:37:05.642Z,16.30
2022-10-05T11:39:38.729Z,16.30
2022-10-05T11:42:27.339Z,16.30
2022-10-05T11:45:11.596Z,16.30
2022-10-05T11:47:43.452Z,16.40
2022-10-05T11:50:16.991Z,16.40
2022-10-05T11:52:47.686Z,16.50
2022-10-05T11:55:19.245Z,16.50
2022-10-05T11:57:52.199Z,16.60
2022-10-05T12:00:22.399Z,16.70
2022-10-05T12:03:09.875Z,16.70
2022-10-05T12:05:42.568Z,16.80
2022-10-05T12:08:17.955Z,16.80
2022-10-05T12:10:49.168Z,16.90
2022-10-05T12:13:24.051Z,16.90
2022-10-05T12:15:56.121Z,17.00
2022-10-05T12:18:28.693Z,17.00
2022-10-05T12:20:58.797Z,17.10
2022-10-05T12:23:30.707Z,17.20
2022-10-05T12:26:03.032Z,17.30
2022-10-05T12:28:33.644Z,17.40
2022-10-05T12:31:08.775Z,17.50
2022-10-05T12:33:39.618Z,17.60
2022-10-05T12:36:11.231Z,17.80
2022-10-05T12:38:42.526Z,18.00
2022-10-05T12:41:15.866Z,18.20
2022-10-05T12:43:47.940Z,18.30
2022-10-05T12:46:19.855Z,18.40
2022-10-05T12:48:56.301Z,18.50
2022-10-05T12:51:32.542Z,18.60
2022-10-05T12:54:05.233Z,18.70
2022-10-05T12:56:37.878Z,18.70
2022-10-05T12:59:11.101Z,18.60
2022-10-05T13:01:42.667Z,18.60
2022-10-05T13:04:22.987Z,18.60
2022-10-05T13:06:55.237Z,18.50
2022-10-05T13:09:25.288Z,18.50
2022-10-05T13:11:56.088Z,18.50
2022-10-05T13:14:33.722Z,18.50
2022-10-05T13:17:08.354Z,18.50
2022-10-05T13:19:40.232Z,18.40
2022-10-05T13:22:17.171Z,18.30
2022-10-05T13:24:48.826Z,18.40
2022-10-05T13:27:19.251Z,18.50
2022-10-05T13:29:54.182Z,18.40
2022-10-05T13:32:25.007Z,18.40
2022-10-05T13:34:56.206Z,18.30
2022-10-05T13:37:29.079Z,18.30
2022-10-05T13:40:01.953Z,18.20
2022-10-05T13:42:33.984Z,18.20
2022-10-05T13:45:04.429Z,18.20
2022-10-05T13:47:36.596Z,18.20
2022-10-05T13:50:06.764Z,18.10
2022-10-05T13:52:38.875Z,18.10
2022-10-05T13:55:13.505Z,18.10
2022-10-05T13:57:46.900Z,18.10
2022-10-05T14:00:16.545Z,18.00
2022-10-05T14:02:47.475Z,18.10
2022-10-05T14:05:17.375Z,18.10
2022-10-05T14:07:53.961Z,18.60
2022-10-05T14:10:32.150Z,18.00
2022-10-05T14:13:00.250Z,18.00
2022-10-05T14:15:30.412Z,18.00
2022-10-05T14:18:00.053Z,18.00
2022-10-05T14:20:28.747Z,18.00
2022-10-05T14:22:58.729Z,18.00
2022-10-05T14:25:26.835Z,18.00
2022-10-05T14:28:00.224Z,18.00
2022-10-05T14:30:28.608Z,18.10
2022-10-05T14:32:59.477Z,18.20
2022-10-05T14:35:29.976Z,18.20
2022-10-05T14:37:59.680Z,18.20
2022-10-05T14:40:29.596Z,18.20
2022-10-05T14:42:58.292Z,18.20
2022-10-05T14:45:29.087Z,18.30
2022-10-05T14:48:06.146Z,18.30
2022-10-05T14:50:49.492Z,18.50
2022-10-05T14:53:18.443Z,18.50
2022-10-05T14:55:55.671Z,18.50
2022-10-05T14:58:33.417Z,18.60
2022-10-05T15:01:03.560Z,18.60
2022-10-05T15:03:39.363Z,18.70
2022-10-05T15:06:12.984Z,18.70
2022-10-05T15:09:16.410Z,18.70
2022-10-05T15:11:49.597Z,18.70
2022-10-05T15:14:20.530Z,18.60
2022-10-05T15:16:51.012Z,18.60
2022-10-05T15:19:20.991Z,18.60
2022-10-05T15:22:06.073Z,18.60
2022-10-05T15:24:41.336Z,18.60
2022-10-05T15:27:17.681Z,18.60
2022-10-05T15:29:57.710Z,18.60
2022-10-05T15:32:30.564Z,18.60
2022-10-05T15:35:06.045Z,18.60
2022-10-05T15:37:40.119Z,18.60
2022-10-05T15:40:09.391Z,18.60
2022-10-05T15:42:38.719Z,18.60
2022-10-05T15:45:13.325Z,18.50
2022-10-05T15:47:48.180Z,18.50
2022-10-05T15:50:18.291Z,18.50
2022-10-05T15:52:50.574Z,18.50
2022-10-05T15:55:27.863Z,18.40
2022-10-05T15:58:01.190Z,18.40
2022-10-05T16:00:30.215Z,18.40
2022-10-05T16:03:03.278Z,18.40
2022-10-05T16:05:57.570Z,18.30
2022-10-05T16:08:55.007Z,18.30
2022-10-05T16:11:30.958Z,18.30
2022-10-05T16:14:02.503Z,18.30
2022-10-05T16:16:35.950Z,18.20
2022-10-05T16:19:05.122Z,18.20
2022-10-05T16:21:36.436Z,18.20
2022-10-05T16:24:16.487Z,18.20
2022-10-05T16:26:52.351Z,18.20
2022-10-05T16:29:25.062Z,18.20
2022-10-05T16:31:57.297Z,18.20
2022-10-05T16:34:32.542Z,18.20
2022-10-05T16:37:04.438Z,18.10
2022-10-05T16:39:48.485Z,18.10
2022-10-05T16:42:23.055Z,18.10
2022-10-05T16:44:55.443Z,18.10
2022-10-05T16:47:35.654Z,18.10
2022-10-05T16:50:09.771Z,18.10
2022-10-05T16:52:38.907Z,18.10
2022-10-05T16:55:12.084Z,18.10
2022-10-05T16:57:41.086Z,18.10
2022-10-05T17:00:18.616Z,18.00
2022-10-05T17:02:53.083Z,18.00
2022-10-05T17:05:31.541Z,18.00
2022-10-05T17:08:03.070Z,18.20
2022-10-05T17:10:44.212Z,18.00
2022-10-05T17:13:20.426Z,18.00
2022-10-05T17:16:03.262Z,18.00
2022-10-05T17:18:49.267Z,18.00
2022-10-05T17:21:22.411Z,18.00
2022-10-05T17:23:54.466Z,18.00
2022-10-05T17:26:41.236Z,18.00
2022-10-05T17:29:12.806Z,18.00
2022-10-05T17:31:59.896Z,18.00
2022-10-05T17:34:28.141Z,18.00
2022-10-05T17:36:59.665Z,18.00
2022-10-05T17:39:48.131Z,18.00
2022-10-05T17:42:40.137Z,17.90
2022-10-05T17:45:23.009Z,18.00
2022-10-05T17:47:59.454Z,18.00
2022-10-05T17:50:55.596Z,18.00
2022-10-05T17:53:41.548Z,17.90
2022-10-05T17:56:09.512Z,17.90
2022-10-05T17:59:01.493Z,17.90
2022-10-05T18:01:34.376Z,17.90
2022-10-05T18:04:21.203Z,17.90
2022-10-05T18:07:01.240Z,17.90
2022-10-05T18:09:34.439Z,17.90
2022-10-05T18:12:03.809Z,17.90
2022-10-05T18:14:51.761Z,17.90
2022-10-05T18:17:36.748Z,17.90
2022-10-05T18:20:19.049Z,17.90
2022-10-05T18:22:51.021Z,17.90
2022-10-05T18:25:23.831Z,17.90
2022-10-05T18:28:05.300Z,17.90
2022-10-05T18:30:37.147Z,17.90
2022-10-05T18:33:11.312Z,17.90
2022-10-05T18:35:45.994Z,17.90
2022-10-05T18:38:24.921Z,18.00
2022-10-05T18:40:55.146Z,18.00
2022-10-05T18:43:29.055Z,18.00
2022-10-05T18:46:02.240Z,18.00
2022-10-05T18:48:35.564Z,18.00
2022-10-05T18:51:08.493Z,18.00
2022-10-05T18:53:40.623Z,18.00
2022-10-05T18:56:13.581Z,18.00
2022-10-05T18:58:50.997Z,18.00
2022-10-05T19:01:30.504Z,18.00
2022-10-05T19:04:04.858Z,18.00
2022-10-05T19:06:36.650Z,18.10
2022-10-05T19:09:09.504Z,18.10
2022-10-05T19:11:39.563Z,18.10
2022-10-05T19:14:12.244Z,18.10
2022-10-05T19:16:47.233Z,18.00
2022-10-05T19:19:43.572Z,18.00
2022-10-05T19:22:17.908Z,18.00
2022-10-05T19:24:51.632Z,18.00
2022-10-05T19:27:25.459Z,18.00
2022-10-05T19:30:01.909Z,18.00
2022-10-05T19:32:37.124Z,18.00
2022-10-05T19:35:10.039Z,17.90
2022-10-05T19:37:42.282Z,17.90
2022-10-05T19:40:15.983Z,17.90
2022-10-05T19:43:02.155Z,17.90
2022-10-05T19:45:30.969Z,17.80
2022-10-05T19:48:07.350Z,17.80
2022-10-05T19:50:37.743Z,17.80
2022-10-05T19:53:13.048Z,17.80
2022-10-05T19:55:43.662Z,17.80
2022-10-05T19:58:19.045Z,17.70
2022-10-05T20:00:53.519Z,17.70
2022-10-05T20:03:26.439Z,17.70
2022-10-05T20:05:56.417Z,17.60
2022-10-05T20:08:27.048Z,17.60
2022-10-05T20:11:06.832Z,17.50
2022-10-05T20:13:35.805Z,17.50
2022-10-05T20:16:24.854Z,17.50
2022-10-05T20:19:10.772Z,17.40
2022-10-05T20:21:39.902Z,17.40
2022-10-05T20:24:08.633Z,17.30
2022-10-05T20:27:04.926Z,17.30
2022-10-05T20:29:35.381Z,17.30
2022-10-05T20:32:08.067Z,17.30
2022-10-05T20:34:37.298Z,17.30
2022-10-05T20:37:05.274Z,17.20
2022-10-05T20:39:33.164Z,17.20
2022-10-05T20:42:02.405Z,17.20
2022-10-05T20:44:30.784Z,17.20
2022-10-05T20:47:01.311Z,17.20
2022-10-05T20:49:31.156Z,17.20
2022-10-05T20:51:59.584Z,17.20
2022-10-05T20:54:28.251Z,17.20
2022-10-05T20:56:56.658Z,17.20
2022-10-05T20:59:26.581Z,17.20
2022-10-05T21:01:54.526Z,17.20
2022-10-05T21:04:23.467Z,17.20
2022-10-05T21:06:52.826Z,17.20
2022-10-05T21:09:21.530Z,17.20
2022-10-05T21:11:50.212Z,17.20
2022-10-05T21:14:18.074Z,17.30
2022-10-05T21:16:47.324Z,17.30
2022-10-05T21:19:15.410Z,17.30
2022-10-05T21:21:49.281Z,17.30
2022-10-05T21:24:17.293Z,17.30
2022-10-05T21:26:45.442Z,17.30
2022-10-05T21:29:13.775Z,17.30
2022-10-05T21:31:42.102Z,17.30
2022-10-05T21:34:11.379Z,17.10
2022-10-05T21:36:39.523Z,16.90
2022-10-05T21:39:07.464Z,16.70
2022-10-05T21:41:35.354Z,16.60
2022-10-05T21:44:04.053Z,16.30
2022-10-05T21:46:32.124Z,16.10
2022-10-05T21:49:00.021Z,16.00
2022-10-05T21:51:29.320Z,15.90
2022-10-05T21:53:58.977Z,15.70
2022-10-05T21:56:29.065Z,15.60
2022-10-05T21:58:57.190Z,15.50
2022-10-05T22:01:25.117Z,15.40
2022-10-05T22:03:53.016Z,15.30
2022-10-05T22:06:20.851Z,15.30
2022-10-05T22:08:50.100Z,15.30
2022-10-05T22:11:18.324Z,15.20
2022-10-05T22:13:47.341Z,15.20
2022-10-05T22:16:15.824Z,15.10
2022-10-05T22:18:44.083Z,15.10
2022-10-05T22:21:13.009Z,15.10
2022-10-05T22:23:41.304Z,15.00
2022-10-05T22:26:11.907Z,15.00
2022-10-05T22:28:40.616Z,15.00
2022-10-05T22:31:09.446Z,14.90
2022-10-05T22:33:37.994Z,14.90
2022-10-05T22:36:06.554Z,14.90
2022-10-05T22:38:34.474Z,14.90
2022-10-05T22:41:02.382Z,14.80
2022-10-05T22:43:31.592Z,14.80
2022-10-05T22:46:01.019Z,14.80
2022-10-05T22:48:29.482Z,14.80
2022-10-05T22:50:57.507Z,14.80
2022-10-05T22:53:25.424Z,14.70
2022-10-05T22:55:53.313Z,14.70
2022-10-05T22:58:21.213Z,14.70
2022-10-05T23:00:58.867Z,14.60
2022-10-05T23:03:27.086Z,14.60
2022-10-05T23:05:58.427Z,14.50
2022-10-05T23:08:26.798Z,14.50
2022-10-05T23:10:55.027Z,14.40
2022-10-05T23:13:23.411Z,14.40
2022-10-05T23:15:52.596Z,14.30
2022-10-05T23:18:20.461Z,14.30
2022-10-05T23:20:53.357Z,14.30
2022-10-05T23:23:21.369Z,14.20
2022-10-05T23:25:49.283Z,14.10
2022-10-05T23:28:17.234Z,14.10
2022-10-05T23:30:45.403Z,14.10
2022-10-05T23:33:14.730Z,14.10
2022-10-05T23:35:42.627Z,14.10
2022-10-05T23:38:10.595Z,14.10
2022-10-05T23:40:38.540Z,14.10
2022-10-05T23:43:06.623Z,14.10
2022-10-05T23:45:34.561Z,14.10
2022-10-05T23:48:02.544Z,14.10
2022-10-05T23:50:32.491Z,14.00
2022-10-05T23:53:00.424Z,14.00
2022-10-05T23:55:28.492Z,14.00
2022-10-05T23:57:56.370Z,14.00
